EHMZ weather

Midden-Zeeland Airport
Middelburg, Zeeland, Netherlands

Public forecast

Using degrees Celsius for public forecast. Weather courtesy of forecast.io.

METAR (pilot weather report)

Closest report is Woensdrecht Air Base, 23.2 nm (42.9 km) E. Retrieved 2019/09/23 12:25 UTC (14 minutes ago):

EHWO 231225Z AUTO 23009KT 190V280 9999 FEW029 BKN066 20/12 Q1014 BLU 25010KT 9999 SCT028

TAF (pilot weather forecast)

Closest forecast is Woensdrecht Air Base, 23.2 nm (42.9 km) E. Retrieved 2019/09/23 09:06 UTC (4 hours ago):

TAF EHWO 230803Z 2309/2321 23009KT 9999 SCT018 BECMG 2312/2315 SCT022 PROB40 TEMPO 2312/2317 FEW015 SCT018CB SCT022